sensor_id;sensor_type;location;lat;lon;timestamp;pressure;altitude;pressure_sealevel;temperature;humidity
16016;BME280;8112;53.592;10.184;2023-07-08T00:01:41;101849.16;;;17.56;100.00
16016;BME280;8112;53.592;10.184;2023-07-08T00:06:43;101849.41;;;17.52;100.00
16016;BME280;8112;53.592;10.184;2023-07-08T00:11:46;101848.59;;;17.39;100.00
16016;BME280;8112;53.592;10.184;2023-07-08T00:16:47;101840.25;;;17.31;100.00
16016;BME280;8112;53.592;10.184;2023-07-08T00:21:50;101836.63;;;17.32;100.00
16016;BME280;8112;53.592;10.184;2023-07-08T00:26:54;101832.59;;;17.13;100.00
16016;BME280;8112;53.592;10.184;2023-07-08T00:31:56;101832.59;;;17.13;100.00
16016;BME280;8112;53.592;10.184;2023-07-08T00:36:57;101832.28;;;17.05;100.00
16016;BME280;8112;53.592;10.184;2023-07-08T00:42:01;101829.38;;;16.95;100.00
16016;BME280;8112;53.592;10.184;2023-07-08T00:47:12;101831.59;;;16.88;100.00
16016;BME280;8112;53.592;10.184;2023-07-08T00:52:26;101822.13;;;16.97;100.00
16016;BME280;8112;53.592;10.184;2023-07-08T00:57:33;101823.50;;;16.90;100.00
16016;BME280;8112;53.592;10.184;2023-07-08T01:02:40;101825.19;;;16.78;100.00
16016;BME280;8112;53.592;10.184;2023-07-08T01:07:48;101822.81;;;16.60;100.00
16016;BME280;8112;53.592;10.184;2023-07-08T01:12:57;101824.69;;;16.32;100.00
16016;BME280;8112;53.592;10.184;2023-07-08T01:18:02;101823.88;;;16.17;100.00
16016;BME280;8112;53.592;10.184;2023-07-08T01:23:05;101826.59;;;15.88;100.00
16016;BME280;8112;53.592;10.184;2023-07-08T01:28:07;101823.69;;;15.78;100.00
16016;BME280;8112;53.592;10.184;2023-07-08T01:33:16;101821.56;;;15.98;100.00
16016;BME280;8112;53.592;10.184;2023-07-08T01:38:24;101817.25;;;16.10;100.00
16016;BME280;8112;53.592;10.184;2023-07-08T01:43:26;101799.44;;;16.25;100.00
16016;BME280;8112;53.592;10.184;2023-07-08T01:48:35;101807.38;;;16.12;100.00
16016;BME280;8112;53.592;10.184;2023-07-08T01:53:41;101794.53;;;16.19;100.00
16016;BME280;8112;53.592;10.184;2023-07-08T01:58:43;101795.47;;;16.18;100.00
16016;BME280;8112;53.592;10.184;2023-07-08T02:03:44;101808.28;;;15.84;100.00
16016;BME280;8112;53.592;10.184;2023-07-08T02:08:48;101803.00;;;15.69;100.00
16016;BME280;8112;53.592;10.184;2023-07-08T02:13:51;101802.34;;;15.65;100.00
16016;BME280;8112;53.592;10.184;2023-07-08T02:18:53;101798.63;;;15.68;100.00
16016;BME280;8112;53.592;10.184;2023-07-08T02:23:56;101799.75;;;15.78;100.00
16016;BME280;8112;53.592;10.184;2023-07-08T02:28:58;101801.09;;;15.71;100.00
16016;BME280;8112;53.592;10.184;2023-07-08T02:34:00;101800.78;;;15.76;100.00
16016;BME280;8112;53.592;10.184;2023-07-08T02:39:04;101791.88;;;15.91;100.00
16016;BME280;8112;53.592;10.184;2023-07-08T02:44:05;101793.06;;;16.00;100.00
16016;BME280;8112;53.592;10.184;2023-07-08T02:49:07;101803.91;;;15.97;100.00
16016;BME280;8112;53.592;10.184;2023-07-08T02:54:10;101803.25;;;15.93;100.00
16016;BME280;8112;53.592;10.184;2023-07-08T02:59:12;101804.47;;;16.02;100.00
16016;BME280;8112;53.592;10.184;2023-07-08T03:04:14;101807.03;;;16.04;100.00
16016;BME280;8112;53.592;10.184;2023-07-08T03:09:17;101806.53;;;16.12;100.00
16016;BME280;8112;53.592;10.184;2023-07-08T03:14:18;101798.47;;;15.99;100.00
16016;BME280;8112;53.592;10.184;2023-07-08T03:19:20;101799.56;;;15.96;100.00
16016;BME280;8112;53.592;10.184;2023-07-08T03:24:23;101803.63;;;16.02;100.00
16016;BME280;8112;53.592;10.184;2023-07-08T03:29:26;101808.03;;;16.16;100.00
16016;BME280;8112;53.592;10.184;2023-07-08T03:34:28;101812.59;;;16.14;100.00
16016;BME280;8112;53.592;10.184;2023-07-08T03:39:31;101802.00;;;16.27;100.00
16016;BME280;8112;53.592;10.184;2023-07-08T03:44:33;101805.22;;;16.45;100.00
16016;BME280;8112;53.592;10.184;2023-07-08T03:49:36;101800.03;;;16.56;100.00
16016;BME280;8112;53.592;10.184;2023-07-08T03:54:39;101804.41;;;16.57;100.00
16016;BME280;8112;53.592;10.184;2023-07-08T03:59:41;101797.31;;;16.71;100.00
16016;BME280;8112;53.592;10.184;2023-07-08T04:04:43;101799.31;;;16.80;100.00
16016;BME280;8112;53.592;10.184;2023-07-08T04:09:46;101785.06;;;16.94;100.00
16016;BME280;8112;53.592;10.184;2023-07-08T04:14:50;101786.56;;;17.24;100.00
16016;BME280;8112;53.592;10.184;2023-07-08T04:19:52;101783.03;;;17.36;100.00
16016;BME280;8112;53.592;10.184;2023-07-08T04:24:55;101789.44;;;17.71;100.00
16016;BME280;8112;53.592;10.184;2023-07-08T04:29:56;101777.31;;;18.51;100.00
16016;BME280;8112;53.592;10.184;2023-07-08T04:34:58;101785.34;;;19.21;100.00
16016;BME280;8112;53.592;10.184;2023-07-08T04:40:01;101786.50;;;19.51;100.00
16016;BME280;8112;53.592;10.184;2023-07-08T04:45:04;101783.34;;;19.58;100.00
16016;BME280;8112;53.592;10.184;2023-07-08T04:50:07;101770.25;;;19.43;100.00
16016;BME280;8112;53.592;10.184;2023-07-08T04:55:12;101779.47;;;19.39;100.00
16016;BME280;8112;53.592;10.184;2023-07-08T05:00:16;101788.34;;;19.40;100.00
16016;BME280;8112;53.592;10.184;2023-07-08T05:05:19;101778.84;;;19.58;100.00
16016;BME280;8112;53.592;10.184;2023-07-08T05:10:22;101772.63;;;19.80;100.00
16016;BME280;8112;53.592;10.184;2023-07-08T05:15:24;101769.16;;;19.90;100.00
16016;BME280;8112;53.592;10.184;2023-07-08T05:20:26;101770.06;;;20.12;100.00
16016;BME280;8112;53.592;10.184;2023-07-08T05:25:32;101771.97;;;20.32;100.00
16016;BME280;8112;53.592;10.184;2023-07-08T05:30:34;101772.81;;;20.54;100.00
16016;BME280;8112;53.592;10.184;2023-07-08T05:35:36;101762.97;;;20.64;100.00
16016;BME280;8112;53.592;10.184;2023-07-08T05:40:39;101768.22;;;20.87;100.00
16016;BME280;8112;53.592;10.184;2023-07-08T05:45:40;101776.00;;;20.90;100.00
16016;BME280;8112;53.592;10.184;2023-07-08T05:50:42;101769.91;;;21.19;100.00
16016;BME280;8112;53.592;10.184;2023-07-08T05:55:47;101769.09;;;21.29;100.00
16016;BME280;8112;53.592;10.184;2023-07-08T06:00:54;101770.53;;;21.43;100.00
16016;BME280;8112;53.592;10.184;2023-07-08T06:05:56;101773.75;;;21.77;100.00
16016;BME280;8112;53.592;10.184;2023-07-08T06:10:59;101773.47;;;21.71;100.00
16016;BME280;8112;53.592;10.184;2023-07-08T06:16:01;101784.34;;;21.89;100.00
16016;BME280;8112;53.592;10.184;2023-07-08T06:21:03;101774.59;;;22.07;100.00
16016;BME280;8112;53.592;10.184;2023-07-08T06:26:06;101773.06;;;22.34;100.00
16016;BME280;8112;53.592;10.184;2023-07-08T06:31:08;101772.47;;;22.41;100.00
16016;BME280;8112;53.592;10.184;2023-07-08T06:36:09;101772.56;;;22.69;100.00
16016;BME280;8112;53.592;10.184;2023-07-08T06:41:12;101776.22;;;22.77;100.00
16016;BME280;8112;53.592;10.184;2023-07-08T06:46:14;101770.13;;;22.85;100.00
16016;BME280;8112;53.592;10.184;2023-07-08T06:51:16;101766.38;;;23.06;100.00
16016;BME280;8112;53.592;10.184;2023-07-08T06:56:19;101765.84;;;23.30;100.00
16016;BME280;8112;53.592;10.184;2023-07-08T07:01:21;101760.47;;;23.76;100.00
16016;BME280;8112;53.592;10.184;2023-07-08T07:06:23;101762.56;;;23.83;100.00
16016;BME280;8112;53.592;10.184;2023-07-08T07:11:26;101759.09;;;24.09;100.00
16016;BME280;8112;53.592;10.184;2023-07-08T07:16:28;101753.16;;;24.23;100.00
16016;BME280;8112;53.592;10.184;2023-07-08T07:21:32;101751.00;;;24.27;100.00
16016;BME280;8112;53.592;10.184;2023-07-08T07:26:35;101757.44;;;24.52;100.00
16016;BME280;8112;53.592;10.184;2023-07-08T07:31:37;101747.41;;;24.97;100.00
16016;BME280;8112;53.592;10.184;2023-07-08T07:36:40;101752.75;;;24.89;100.00
16016;BME280;8112;53.592;10.184;2023-07-08T07:41:43;101739.56;;;25.12;100.00
16016;BME280;8112;53.592;10.184;2023-07-08T07:46:44;101736.19;;;25.18;100.00
16016;BME280;8112;53.592;10.184;2023-07-08T07:51:47;101743.53;;;25.43;100.00
16016;BME280;8112;53.592;10.184;2023-07-08T07:56:51;101749.00;;;25.59;100.00
16016;BME280;8112;53.592;10.184;2023-07-08T08:01:52;101742.78;;;26.00;100.00
16016;BME280;8112;53.592;10.184;2023-07-08T08:06:54;101747.50;;;26.15;100.00
16016;BME280;8112;53.592;10.184;2023-07-08T08:11:57;101747.47;;;26.56;100.00
16016;BME280;8112;53.592;10.184;2023-07-08T08:16:59;101743.56;;;26.59;100.00
16016;BME280;8112;53.592;10.184;2023-07-08T08:22:00;101737.97;;;26.69;100.00
16016;BME280;8112;53.592;10.184;2023-07-08T08:27:04;101741.47;;;26.94;100.00
16016;BME280;8112;53.592;10.184;2023-07-08T08:32:07;101743.78;;;27.06;100.00
16016;BME280;8112;53.592;10.184;2023-07-08T08:37:09;101746.94;;;27.17;100.00
16016;BME280;8112;53.592;10.184;2023-07-08T08:42:18;101734.06;;;27.28;97.50
16016;BME280;8112;53.592;10.184;2023-07-08T08:47:29;101737.78;;;27.58;100.00
16016;BME280;8112;53.592;10.184;2023-07-08T08:52:33;101742.69;;;27.55;100.00
16016;BME280;8112;53.592;10.184;2023-07-08T08:57:41;101746.06;;;28.03;100.00
16016;BME280;8112;53.592;10.184;2023-07-08T09:02:53;101743.16;;;28.28;94.82
16016;BME280;8112;53.592;10.184;2023-07-08T09:08:02;101731.66;;;28.26;91.85
16016;BME280;8112;53.592;10.184;2023-07-08T09:13:07;101736.06;;;28.04;94.23
16016;BME280;8112;53.592;10.184;2023-07-08T09:18:18;101732.19;;;28.22;91.92
16016;BME280;8112;53.592;10.184;2023-07-08T09:23:25;101735.78;;;28.14;91.16
16016;BME280;8112;53.592;10.184;2023-07-08T09:28:37;101723.41;;;28.20;88.51
16016;BME280;8112;53.592;10.184;2023-07-08T09:33:39;101732.53;;;28.42;89.11
16016;BME280;8112;53.592;10.184;2023-07-08T09:38:41;101727.00;;;28.35;87.36
16016;BME280;8112;53.592;10.184;2023-07-08T09:43:44;101719.06;;;28.64;83.30
16016;BME280;8112;53.592;10.184;2023-07-08T09:48:45;101708.22;;;28.64;82.55
16016;BME280;8112;53.592;10.184;2023-07-08T09:53:47;101718.38;;;28.31;85.44
16016;BME280;8112;53.592;10.184;2023-07-08T09:58:50;101713.00;;;28.62;74.63
16016;BME280;8112;53.592;10.184;2023-07-08T10:03:57;101718.22;;;28.33;84.91
16016;BME280;8112;53.592;10.184;2023-07-08T10:09:02;101708.88;;;28.66;82.67
16016;BME280;8112;53.592;10.184;2023-07-08T10:14:11;101708.47;;;28.99;84.75
16016;BME280;8112;53.592;10.184;2023-07-08T10:19:17;101706.41;;;29.01;86.79
16016;BME280;8112;53.592;10.184;2023-07-08T10:24:32;101709.31;;;29.14;74.03
16016;BME280;8112;53.592;10.184;2023-07-08T10:29:44;101709.59;;;29.05;84.02
16016;BME280;8112;53.592;10.184;2023-07-08T10:34:52;101705.59;;;29.00;76.19
16016;BME280;8112;53.592;10.184;2023-07-08T10:40:09;101703.84;;;29.51;80.39
16016;BME280;8112;53.592;10.184;2023-07-08T10:45:16;101700.06;;;29.67;78.06
16016;BME280;8112;53.592;10.184;2023-07-08T10:50:35;101691.84;;;30.11;71.34
16016;BME280;8112;53.592;10.184;2023-07-08T10:55:48;101697.06;;;30.41;73.21
16016;BME280;8112;53.592;10.184;2023-07-08T11:01:02;101683.19;;;30.64;70.16
16016;BME280;8112;53.592;10.184;2023-07-08T11:06:10;101685.78;;;30.79;70.40
16016;BME280;8112;53.592;10.184;2023-07-08T11:11:23;101686.56;;;31.22;63.25
16016;BME280;8112;53.592;10.184;2023-07-08T11:16:31;101674.19;;;31.26;66.05
16016;BME280;8112;53.592;10.184;2023-07-08T11:21:37;101667.13;;;32.12;61.29
16016;BME280;8112;53.592;10.184;2023-07-08T11:26:45;101673.22;;;32.01;58.98
16016;BME280;8112;53.592;10.184;2023-07-08T11:31:49;101672.16;;;31.95;57.56
16016;BME280;8112;53.592;10.184;2023-07-08T11:36:51;101670.28;;;31.89;55.03
16016;BME280;8112;53.592;10.184;2023-07-08T11:42:04;101659.16;;;31.91;51.08
16016;BME280;8112;53.592;10.184;2023-07-08T11:47:16;101668.34;;;31.36;57.85
16016;BME280;8112;53.592;10.184;2023-07-08T11:52:21;101657.91;;;30.70;59.09
16016;BME280;8112;53.592;10.184;2023-07-08T11:57:28;101652.44;;;30.28;58.74
16016;BME280;8112;53.592;10.184;2023-07-08T12:02:47;101647.72;;;30.09;62.69
16016;BME280;8112;53.592;10.184;2023-07-08T12:07:55;101651.16;;;29.67;63.66
16016;BME280;8112;53.592;10.184;2023-07-08T12:12:58;101649.78;;;29.78;61.01
16016;BME280;8112;53.592;10.184;2023-07-08T12:18:02;101633.91;;;29.53;60.77
16016;BME280;8112;53.592;10.184;2023-07-08T12:23:11;101641.81;;;29.77;58.73
16016;BME280;8112;53.592;10.184;2023-07-08T12:28:14;101641.22;;;29.53;62.13
16016;BME280;8112;53.592;10.184;2023-07-08T12:33:19;101636.19;;;29.50;62.39
16016;BME280;8112;53.592;10.184;2023-07-08T12:38:27;101636.16;;;29.28;63.32
16016;BME280;8112;53.592;10.184;2023-07-08T12:43:30;101630.06;;;29.26;66.83
16016;BME280;8112;53.592;10.184;2023-07-08T12:48:34;101627.63;;;29.31;60.06
16016;BME280;8112;53.592;10.184;2023-07-08T12:53:36;101634.22;;;29.43;61.29
16016;BME280;8112;53.592;10.184;2023-07-08T12:58:41;101623.66;;;29.49;53.37
16016;BME280;8112;53.592;10.184;2023-07-08T13:03:47;101621.03;;;29.40;58.72
16016;BME280;8112;53.592;10.184;2023-07-08T13:08:50;101613.16;;;29.67;56.71
16016;BME280;8112;53.592;10.184;2023-07-08T13:13:54;101610.06;;;29.49;58.22
16016;BME280;8112;53.592;10.184;2023-07-08T13:18:57;101615.41;;;29.92;58.28
16016;BME280;8112;53.592;10.184;2023-07-08T13:23:59;101610.41;;;29.96;58.99
16016;BME280;8112;53.592;10.184;2023-07-08T13:29:09;101599.63;;;30.09;58.22
16016;BME280;8112;53.592;10.184;2023-07-08T13:34:16;101609.56;;;29.95;54.73
16016;BME280;8112;53.592;10.184;2023-07-08T13:39:23;101600.50;;;29.81;55.05
16016;BME280;8112;53.592;10.184;2023-07-08T13:44:26;101605.16;;;29.94;57.03
16016;BME280;8112;53.592;10.184;2023-07-08T13:49:58;101600.03;;;30.06;53.56
16016;BME280;8112;53.592;10.184;2023-07-08T13:55:12;101593.06;;;30.32;47.48
16016;BME280;8112;53.592;10.184;2023-07-08T14:00:17;101585.81;;;30.04;54.00
16016;BME280;8112;53.592;10.184;2023-07-08T14:05:21;101584.88;;;30.25;49.43
16016;BME280;8112;53.592;10.184;2023-07-08T14:10:22;101586.97;;;30.23;49.39
16016;BME280;8112;53.592;10.184;2023-07-08T14:15:25;101582.81;;;30.27;49.45
16016;BME280;8112;53.592;10.184;2023-07-08T14:20:28;101591.19;;;30.33;48.59
16016;BME280;8112;53.592;10.184;2023-07-08T14:25:30;101589.06;;;30.28;52.11
16016;BME280;8112;53.592;10.184;2023-07-08T14:30:32;101595.31;;;30.64;49.39
16016;BME280;8112;53.592;10.184;2023-07-08T14:35:35;101580.69;;;30.65;49.58
16016;BME280;8112;53.592;10.184;2023-07-08T14:40:39;101584.13;;;30.45;52.32
16016;BME280;8112;53.592;10.184;2023-07-08T14:45:43;101571.88;;;30.63;47.23
16016;BME280;8112;53.592;10.184;2023-07-08T14:50:47;101567.41;;;31.37;45.03
16016;BME280;8112;53.592;10.184;2023-07-08T14:55:51;101563.63;;;32.38;43.80
16016;BME280;8112;53.592;10.184;2023-07-08T15:00:55;101562.53;;;31.87;44.55
16016;BME280;8112;53.592;10.184;2023-07-08T15:05:58;101564.28;;;32.72;41.83
16016;BME280;8112;53.592;10.184;2023-07-08T15:11:00;101563.88;;;32.23;43.67
16016;BME280;8112;53.592;10.184;2023-07-08T15:16:02;101558.78;;;31.81;42.04
16016;BME280;8112;53.592;10.184;2023-07-08T15:21:07;101565.50;;;31.85;45.66
16016;BME280;8112;53.592;10.184;2023-07-08T15:26:10;101562.88;;;32.10;44.74
16016;BME280;8112;53.592;10.184;2023-07-08T15:31:13;101556.72;;;34.01;40.28
16016;BME280;8112;53.592;10.184;2023-07-08T15:36:17;101545.66;;;35.54;35.77
16016;BME280;8112;53.592;10.184;2023-07-08T15:41:21;101554.66;;;36.31;35.36
16016;BME280;8112;53.592;10.184;2023-07-08T15:46:27;101551.38;;;35.52;35.89
16016;BME280;8112;53.592;10.184;2023-07-08T15:51:31;101555.66;;;34.02;43.26
16016;BME280;8112;53.592;10.184;2023-07-08T23:40:35;101701.66;;;20.61;100.00
16016;BME280;8112;53.592;10.184;2023-07-08T23:45:36;101699.78;;;20.52;100.00
16016;BME280;8112;53.592;10.184;2023-07-08T23:50:38;101696.41;;;20.50;100.00
16016;BME280;8112;53.592;10.184;2023-07-08T23:55:41;101701.81;;;20.39;100.00
